• Join FlightAware (Why Join?)
  • Login
  • US Flag 
11:15AM EST


 

Airport Tracker/Info


-or-


 

Live Flight TrackerFlight Track Log ✈ N312BL ✈ 08-Nov-2013 ✈ KOXC - KSOP

Flight Track Log - Related Links

Times and Time Zones

All times are in EST time to prevent confusion due to time zone crossing. See the N312BL flight status page for this flight to view local times or setup timezone preferences in your user account.

Time Position Orientation Groundspeed Altitude Reporting Facility
EST Latitude Longitude Course Direction KTS MPH feet Rate Location/Type
01:38PM 41.5011 -73.1522 143° Southeast 140 161 2,300  Level Boston Center
01:39PM 41.4489 -73.1697 194° South 258 297 3,100 1,440 Climbing Boston Center
01:40PM 41.3708 -73.1311 160° South 275 316 5,300 2,160 Climbing Boston Center
01:41PM 41.3333 -73.0833 136° Southeast 282 325 6,500 1,560 Climbing New York TRACON
01:43PM 41.1983 -72.9108 136° Southeast 312 359 10,200 1,740 Climbing Boston Center
01:44PM 41.1928 -73.4550 143° Southeast  Level Estimated
01:44PM 41.1250 -72.8572 151° Southeast 301 346 12,800  Level Boston Center
01:45PM 41.0381 -72.8561 179° South 264 304 16,100 2,640 Climbing Boston Center
01:46PM 40.9825 -72.8994 210° Southwest 236 272 18,300 2,160 Climbing Boston Center
01:47PM 40.9331 -72.9467 216° Southwest 228 262 20,500 1,980 Climbing Boston Center
01:48PM 40.8800 -72.9944 214° Southwest 229 264 22,400 1,860 Climbing Boston Center
01:50PM 40.8247 -73.0442 214° Southwest 240 276 24,400 1,860 Climbing Boston Center
01:51PM 40.7719 -73.0928 215° Southwest 236 272 26,300 1,140 Climbing Boston Center
01:56PM 40.4960 -73.3440 215° Southwest 100 115 32,000 900 Climbing FlightAware
01:57PM 40.4560 -73.3830 217° Southwest 252 290 32,000  Level FlightAware
01:57PM 40.4240 -73.4130 216° Southwest 252 290 32,000  Level FlightAware
01:58PM 40.3870 -73.4450 213° Southwest 294 338 32,000  Level FlightAware
01:58PM 40.3430 -73.4510 186° South 294 338 32,000  Level FlightAware
01:59PM 40.2720 -73.4610 186° South 294 338 32,000  Level FlightAware
02:00PM 40.2010 -73.4710 186° South 294 338 32,000  Level FlightAware
02:02PM 40.1180 -73.4820 186° South 294 338 32,000  Level FlightAware
02:02PM 40.0760 -73.4880 186° South 294 338 32,000  Level FlightAware
02:03PM 40.0340 -73.4940 186° South 294 338 32,000  Level FlightAware
02:03PM 39.9910 -73.5000 186° South 294 338 32,000  Level FlightAware
02:04PM 39.9490 -73.5050 185° South 294 338 32,000  Level FlightAware
02:05PM 39.9070 -73.5110 186° South 294 338 32,000  Level FlightAware
02:05PM 39.8650 -73.5170 186° South 294 338 32,000  Level FlightAware
02:06PM 39.8110 -73.5240 186° South 294 338 32,000  Level FlightAware
02:07PM 39.7690 -73.5300 186° South 294 338 32,000  Level FlightAware
02:07PM 39.7270 -73.5360 186° South 294 338 32,000  Level FlightAware
02:08PM 39.7000 -73.5390 185° South 294 338 32,000  Level FlightAware
02:09PM 39.5761 -74.0328 185° South 307 353 32,000  Level Washington Center
02:10PM 39.5103 -74.0958 216° Southwest 302 348 32,000  Level Washington Center
02:11PM 39.4464 -74.1592 217° Southwest 302 348 32,000  Level Washington Center
02:12PM 39.3825 -74.2194 216° Southwest 295 339 32,000  Level Washington Center
02:13PM 39.3186 -74.2825 217° Southwest 295 339 32,000  Level Washington Center
02:14PM 39.2569 -74.3453 218° Southwest 295 339 32,000  Level Washington Center
02:15PM 39.1928 -74.4053 216° Southwest 295 339 32,000  Level Washington Center
02:16PM 39.1267 -74.4653 215° Southwest 295 339 32,000  Level Washington Center
02:17PM 39.0606 -74.5278 216° Southwest 295 339 32,000  Level Washington Center
02:18PM 38.9986 -74.5900 218° Southwest 295 339 32,000  Level Washington Center
02:19PM 38.9325 -74.6522 216° Southwest 295 339 32,000  Level Washington Center
02:20PM 38.8661 -74.7119 215° Southwest 295 339 32,000  Level Washington Center
02:21PM 38.8019 -74.7739 217° Southwest 295 339 32,000  Level Washington Center
02:22PM 38.7378 -74.8358 217° Southwest 295 339 32,000  Level Washington Center
02:23PM 38.6736 -74.8922 214° Southwest 295 339 32,000  Level Washington Center
02:24PM 38.6092 -74.9567 218° Southwest 295 339 32,000  Level Washington Center
02:25PM 38.5450 -75.0131 215° Southwest 295 339 32,000  Level Washington Center
02:26PM 38.4806 -75.0772 218° Southwest 295 339 32,000  Level Washington Center
02:27PM 38.4142 -75.1386 216° Southwest 295 339 32,000  Level Washington Center
02:28PM 38.3497 -75.2025 218° Southwest 295 339 32,000  Level Washington Center
02:29PM 38.2894 -75.2769 224° Southwest 295 339 32,000  Level Washington Center
02:30PM 38.2292 -75.3486 223° Southwest 290 334 32,000  Level Washington Center
02:31PM 38.1708 -75.4122 221° Southwest 290 334 32,000  Level Washington Center
02:32PM 38.1106 -75.4756 220° Southwest 290 334 32,000  Level Washington Center
02:33PM 38.0500 -75.5442 222° Southwest 290 334 32,000  Level Washington Center
02:34PM 37.9917 -75.6075 221° Southwest 290 334 32,000  Level Washington Center
02:35PM 37.9333 -75.6786 224° Southwest 290 334 32,000  Level Washington Center
02:36PM 37.8728 -75.7469 222° Southwest 290 334 32,000  Level Washington Center
02:37PM 37.8122 -75.8153 222° Southwest 290 334 32,000  Level Washington Center
02:38PM 37.7536 -75.8808 221° Southwest 290 334 32,000  Level Washington Center
02:39PM 37.6931 -75.9486 222° Southwest 290 334 32,000  Level Washington Center
02:41PM 37.5717 -76.0819 221° Southwest 290 334 32,000  Level Washington Center
02:42PM 37.5108 -76.1469 220° Southwest 290 334 32,000  Level Washington Center
02:43PM 37.4478 -76.2092 218° Southwest 290 334 32,000  Level Washington Center
02:44PM 37.3911 -76.2767 223° Southwest 290 334 32,000  Level Washington Center
02:45PM 37.3303 -76.3442 221° Southwest 290 334 32,000  Level Washington Center
02:46PM 37.2714 -76.4061 220° Southwest 290 334 32,000  Level Washington Center
02:47PM 37.2125 -76.4733 222° Southwest 290 334 32,000  Level Washington Center
02:48PM 37.1517 -76.5353 219° Southwest 290 334 32,000 -60 Level Washington Center
02:49PM 37.0928 -76.5994 221° Southwest 290 334 31,900 -960 Descending Washington Center
02:50PM 37.0317 -76.6689 222° Southwest 290 334 30,100 -1,860 Descending Washington Center
02:51PM 36.9642 -76.7433 221° Southwest 302 348 28,200 -1,920 Descending Washington Center
02:52PM 36.8947 -76.8178 221° Southwest 321 369 26,300 -1,920 Descending Washington Center
02:53PM 36.8231 -76.8892 219° Southwest 326 375 24,400 -1,200 Descending Washington Center
02:54PM 36.7369 -76.9397 205° Southwest 338 389 24,000 -900 Descending Washington Center
02:55PM 36.6550 -76.9847 204° Southwest 338 389 22,600 -1,620 Descending Washington Center
02:56PM 36.5728 -77.0456 211° Southwest 338 389 20,900 -1,800 Descending Washington Center
02:57PM 36.5278 -77.1378 239° Southwest 313 360 19,100 -960 Descending Washington Center
02:58PM 36.4808 -77.2244 236° Southwest 313 360 19,000 -60 Descending Washington Center
02:59PM 36.4358 -77.3061 236° Southwest 308 354 19,000  Level Washington Center
03:00PM 36.3908 -77.3878 236° Southwest 301 346 19,000  Level Washington Center
03:01PM 36.3458 -77.4694 236° Southwest 301 346 19,000 -360 Level Washington Center
03:02PM 36.3006 -77.5558 237° Southwest 296 341 18,300 -660 Descending Washington Center
03:03PM 36.2511 -77.6422 235° Southwest 307 353 17,700 -900 Descending Washington Center
03:04PM 36.2017 -77.7311 235° Southwest 312 359 16,600 -1,200 Descending Washington Center
03:05PM 36.1478 -77.8194 233° Southwest 317 365 15,400 -1,200 Descending Washington Center
03:06PM 36.0983 -77.9081 235° Southwest 317 365 14,300 -1,140 Descending Washington Center
03:07PM 36.0483 -77.9992 236° Southwest 323 372 13,200 -900 Descending Washington Center
03:07PM 36.0225 -78.0394 232° Southwest 321 369 13,000 -240 Descending Washington Center
03:08PM 35.9986 -78.0875 238° Southwest 323 372 13,000  Level Washington Center
03:09PM 35.9619 -78.1453 232° Southwest 298 343 13,000  Level Washington Center
03:09PM 35.9575 -78.1606 250° West 309 356 13,000  Level Washington Center
03:10PM 35.9142 -78.2258 231° Southwest 289 333 13,000  Level Washington Center
03:10PM 35.9056 -78.2486 245° Southwest 296 341 13,000 -360 Level Washington Center
03:11PM 35.8556 -78.3317 233° Southwest 296 341 12,600 -480 Descending Washington Center
03:12PM 35.8164 -78.3994 235° Southwest 305 351 12,200 -600 Descending Washington Center
03:12PM 35.8078 -78.4169 239° Southwest 302 348 12,000 -1,200 Descending Washington Center
03:13PM 35.7708 -78.4797 234° Southwest 284 327 11,000 -1,140 Descending Washington Center
03:13PM 35.7642 -78.4947 241° Southwest 302 348 10,900 -1,020 Descending Washington Center
03:14PM 35.7250 -78.5522 230° Southwest 272 313 10,000 -1,080 Descending Washington Center
03:14PM 35.7206 -78.5725 255° West 296 341 9,900 -960 Descending Washington Center
03:15PM 35.6792 -78.6400 233° Southwest 284 327 8,900 -960 Descending Washington Center
03:16PM 35.6353 -78.7175 235° Southwest 284 327 8,000 -900 Descending Washington Center
03:17PM 35.5917 -78.7925 234° Southwest 284 327 7,100 -900 Descending Washington Center
03:19PM 35.5082 -78.9197 234° Southwest  Level FlightAware Approximate
03:26PM 35.2333 -79.3833 239° Southwest  Level FlightAware Approximate
03:27PM 35.2380 -79.3883 239° Southwest  Level Estimated
03:28PM 35.2333 -79.3833 239° Southwest  Level FlightAware Approximate